Time;durP1;ratioP1;P1;durP2;ratioP2;P2;SDS_P1;SDS_P2;PMS_P1;PMS_P2;Temp;Humidity;BMP_temperature;BMP_pressure;BME280_temperature;BME280_humidity;BME280_pressure;Samples;Min_cycle;Max_cycle;Signal;HPM_P1;HPM_P2
2021/08/13 00:02:10;;;;;;;12.00;10.90;;;20.20;72.40;;;;;;5208156;28;20095;-68
2021/08/13 00:04:43;;;;;;;13.23;11.93;;;20.20;72.00;;;;;;5206811;28;20052;-69
2021/08/13 00:07:16;;;;;;;12.05;10.90;;;20.20;73.50;;;;;;5209441;28;20133;-67
2021/08/13 00:09:48;;;;;;;15.20;11.40;;;20.00;72.90;;;;;;5194239;28;20179;-68
2021/08/13 00:12:20;;;;;;;12.77;10.98;;;20.00;74.10;;;;;;5220364;28;20668;-67
2021/08/13 00:14:57;;;;;;;12.52;11.43;;;19.90;73.40;;;;;;5210970;28;20041;-68
2021/08/13 00:17:29;;;;;;;12.23;11.02;;;19.90;72.70;;;;;;5205754;28;20604;-68
2021/08/13 00:20:01;;;;;;;12.85;11.65;;;20.00;72.50;;;;;;5207844;28;20092;-67
2021/08/13 00:22:33;;;;;;;12.20;10.90;;;20.00;72.30;;;;;;5186672;28;20084;-69
2021/08/13 00:25:05;;;;;;;12.80;11.52;;;20.10;72.40;;;;;;5187654;28;20133;-68
2021/08/13 00:27:37;;;;;;;12.95;11.65;;;20.10;72.30;;;;;;5168133;28;20070;-68
2021/08/13 00:30:10;;;;;;;12.38;11.18;;;20.10;71.60;;;;;;5186485;28;20041;-68
2021/08/13 00:32:42;;;;;;;12.75;11.57;;;20.10;70.80;;;;;;5189314;28;20571;-69
2021/08/13 00:35:14;;;;;;;12.48;11.38;;;20.00;71.00;;;;;;5174720;28;20060;-67
2021/08/13 00:37:46;;;;;;;12.80;11.45;;;20.10;72.00;;;;;;5172583;28;20053;-68
2021/08/13 00:40:22;;;;;;;12.13;10.57;;;20.10;72.00;;;;;;5186339;28;20057;-68
2021/08/13 00:42:54;;;;;;;13.00;11.38;;;20.10;71.60;;;;;;5159674;28;20049;-68
2021/08/13 00:45:26;;;;;;;12.77;11.48;;;20.10;71.30;;;;;;5184597;28;20133;-68
2021/08/13 00:48:11;;;;;;;12.93;11.15;;;20.00;71.10;;;;;;5165446;28;20092;-68
2021/08/13 00:51:00;;;;;;;11.32;10.20;;;20.00;71.60;;;;;;5170314;28;20040;-70
2021/08/13 00:53:34;;;;;;;12.18;11.00;;;20.00;71.40;;;;;;5169781;28;20100;-68
2021/08/13 00:56:08;;;;;;;13.90;11.68;;;20.00;72.60;;;;;;5171532;28;20064;-68
2021/08/13 00:59:05;;;;;;;12.98;11.68;;;19.80;72.80;;;;;;5164557;28;20053;-69
2021/08/13 01:01:51;;;;;;;13.38;11.98;;;19.80;72.50;;;;;;5180693;28;20045;-67
2021/08/13 01:04:24;;;;;;;13.90;11.80;;;19.80;72.30;;;;;;5174413;28;20064;-68
2021/08/13 01:06:58;;;;;;;12.70;11.50;;;19.70;72.80;;;;;;5167537;28;20868;-67
2021/08/13 01:09:31;;;;;;;13.07;11.77;;;19.70;73.00;;;;;;5169443;28;20349;-69
2021/08/13 01:12:09;;;;;;;12.15;10.95;;;19.70;73.50;;;;;;5167791;28;20100;-69
2021/08/13 01:14:46;;;;;;;12.80;11.50;;;19.70;73.40;;;;;;5172960;28;20286;-67
2021/08/13 01:17:22;;;;;;;12.52;11.43;;;19.80;72.80;;;;;;5171985;28;20037;-71
2021/08/13 01:20:35;;;;;;;14.48;11.85;;;19.70;72.90;;;;;;5171564;28;20127;-67
2021/08/13 01:24:02;;;;;;;12.90;11.45;;;19.70;73.20;;;;;;5170958;28;20069;-67
2021/08/13 01:26:44;;;;;;;13.52;11.30;;;19.70;73.60;;;;;;5088588;28;20071;-68
2021/08/13 01:29:38;;;;;;;13.27;11.98;;;19.70;73.20;;;;;;5164817;28;20056;-68
2021/08/13 01:32:13;;;;;;;13.57;11.20;;;19.70;72.90;;;;;;5176060;28;20038;-68
2021/08/13 01:34:54;;;;;;;12.80;11.60;;;19.80;73.60;;;;;;5172518;28;20042;-68
2021/08/13 01:37:28;;;;;;;12.85;11.63;;;19.70;73.50;;;;;;5171961;28;20553;-67
2021/08/13 01:40:08;;;;;;;12.63;11.40;;;19.80;74.50;;;;;;5177960;28;20443;-67
2021/08/13 01:42:44;;;;;;;13.07;11.77;;;19.70;73.60;;;;;;5171276;28;20056;-68
2021/08/13 01:45:25;;;;;;;12.18;11.07;;;19.70;73.90;;;;;;5176041;28;20499;-69
2021/08/13 01:47:59;;;;;;;13.48;12.13;;;19.60;74.30;;;;;;5187270;28;20053;-67
2021/08/13 01:50:31;;;;;;;13.02;11.73;;;19.70;74.10;;;;;;5184220;28;20048;-69
2021/08/13 01:53:04;;;;;;;13.38;12.10;;;19.60;74.30;;;;;;5168341;28;20068;-68
2021/08/13 01:55:37;;;;;;;13.63;12.43;;;19.50;74.00;;;;;;5175901;28;20065;-68
2021/08/13 01:58:13;;;;;;;13.00;11.90;;;19.50;73.70;;;;;;5170841;28;20132;-66
2021/08/13 02:00:51;;;;;;;13.57;12.35;;;19.60;74.00;;;;;;5166086;28;20042;-68
2021/08/13 02:03:25;;;;;;;13.35;12.13;;;19.60;74.60;;;;;;5166000;28;20049;-67
2021/08/13 02:05:57;;;;;;;13.57;12.27;;;19.50;76.00;;;;;;5167720;28;20050;-67
2021/08/13 02:08:30;;;;;;;13.57;12.38;;;19.50;76.20;;;;;;5175068;28;20042;-67
2021/08/13 02:11:05;;;;;;;14.35;12.82;;;19.40;75.80;;;;;;5182473;28;20065;-68
2021/08/13 02:13:37;;;;;;;13.77;12.43;;;19.40;74.70;;;;;;5181278;28;20164;-67
2021/08/13 02:16:13;;;;;;;14.07;12.77;;;19.40;75.20;;;;;;5172250;28;20048;-68
2021/08/13 02:18:55;;;;;;;14.75;13.38;;;19.50;76.00;;;;;;5174934;28;20125;-69
2021/08/13 02:21:33;;;;;;;13.70;12.32;;;19.40;75.90;;;;;;5189629;28;20042;-68
2021/08/13 02:24:05;;;;;;;14.43;12.95;;;19.50;76.70;;;;;;5160200;28;20128;-68
2021/08/13 02:26:38;;;;;;;14.20;12.90;;;19.50;75.40;;;;;;5169222;28;20050;-67
2021/08/13 02:29:10;;;;;;;13.90;12.57;;;19.50;76.30;;;;;;5191508;28;20053;-67
2021/08/13 02:31:42;;;;;;;13.40;12.18;;;19.60;76.10;;;;;;5167926;28;20041;-67
2021/08/13 02:34:15;;;;;;;13.77;12.00;;;19.60;76.40;;;;;;5181159;28;20045;-67
2021/08/13 02:37:01;;;;;;;14.07;12.75;;;19.60;77.30;;;;;;5172904;28;20136;-68
2021/08/13 02:39:46;;;;;;;13.88;12.57;;;19.60;76.90;;;;;;5188824;28;20044;-68
2021/08/13 02:42:26;;;;;;;14.20;12.85;;;19.60;77.20;;;;;;5174673;28;20038;-68
2021/08/13 02:45:00;;;;;;;13.82;12.48;;;19.60;77.50;;;;;;5181726;28;20096;-67
2021/08/13 02:47:34;;;;;;;14.40;12.90;;;19.60;76.80;;;;;;5189728;28;20129;-68
2021/08/13 02:50:08;;;;;;;13.93;12.70;;;19.60;78.40;;;;;;5178775;28;20144;-67
2021/08/13 02:53:05;;;;;;;15.18;13.80;;;19.50;79.20;;;;;;5195505;28;20537;-67
2021/08/13 02:55:46;;;;;;;15.00;13.27;;;19.50;79.00;;;;;;5189971;28;20044;-67
2021/08/13 02:58:23;;;;;;;16.95;13.52;;;19.50;80.40;;;;;;5201674;28;20057;-68
2021/08/13 03:00:56;;;;;;;14.48;13.18;;;19.50;80.00;;;;;;5199825;28;20033;-67
2021/08/13 03:03:30;;;;;;;13.77;12.57;;;19.50;79.50;;;;;;5206012;28;20637;-66
2021/08/13 03:06:04;;;;;;;15.00;13.70;;;19.50;78.50;;;;;;5207665;28;20046;-68
2021/08/13 03:08:39;;;;;;;14.85;13.30;;;19.50;80.70;;;;;;5194021;28;20054;-68
2021/08/13 03:11:14;;;;;;;14.32;13.02;;;19.50;80.50;;;;;;5208481;28;20041;-68
2021/08/13 03:13:46;;;;;;;14.05;12.77;;;19.50;80.40;;;;;;5196465;28;20048;-68
2021/08/13 03:16:18;;;;;;;14.70;13.40;;;19.50;79.70;;;;;;5192855;28;20072;-71
2021/08/13 03:18:56;;;;;;;14.10;12.80;;;19.50;80.00;;;;;;5191642;28;20800;-68
2021/08/13 03:21:32;;;;;;;14.27;12.98;;;19.40;79.40;;;;;;5194424;28;20503;-67
2021/08/13 03:24:05;;;;;;;13.32;12.13;;;19.50;79.10;;;;;;5182864;28;20445;-68
2021/08/13 03:26:39;;;;;;;13.50;12.23;;;19.40;79.00;;;;;;5179251;28;20128;-67
2021/08/13 03:29:17;;;;;;;14.35;13.10;;;19.50;78.90;;;;;;5190037;28;20118;-67
2021/08/13 03:31:49;;;;;;;14.10;12.90;;;19.40;78.30;;;;;;5205800;28;20047;-68
2021/08/13 03:34:21;;;;;;;14.85;13.50;;;19.40;78.70;;;;;;5194431;28;20033;-68
2021/08/13 03:36:53;;;;;;;14.65;13.13;;;19.40;80.00;;;;;;5191396;28;20050;-67
2021/08/13 03:39:28;;;;;;;14.00;12.70;;;19.40;80.20;;;;;;5192170;28;20140;-67
2021/08/13 03:42:00;;;;;;;14.05;12.75;;;19.40;80.90;;;;;;5183848;28;20662;-67
2021/08/13 03:44:33;;;;;;;13.60;12.25;;;19.40;79.70;;;;;;5200196;28;20055;-68
2021/08/13 03:47:06;;;;;;;14.98;13.45;;;19.40;79.70;;;;;;5192952;28;20056;-67
2021/08/13 03:49:39;;;;;;;14.75;13.32;;;19.40;81.00;;;;;;5198383;28;20515;-67
2021/08/13 03:52:11;;;;;;;14.15;12.68;;;19.40;81.70;;;;;;5196707;28;20508;-67
2021/08/13 03:54:43;;;;;;;13.43;12.13;;;19.40;81.50;;;;;;5212008;28;20448;-67
2021/08/13 03:57:16;;;;;;;14.02;12.52;;;19.40;81.50;;;;;;5201370;28;20540;-67
2021/08/13 03:59:48;;;;;;;13.30;12.10;;;19.40;81.10;;;;;;5218447;28;20045;-68
2021/08/13 04:02:20;;;;;;;14.10;12.68;;;19.40;80.50;;;;;;5185970;28;20050;-67
2021/08/13 04:04:53;;;;;;;14.10;12.77;;;19.40;79.90;;;;;;5185307;28;20084;-67
2021/08/13 04:07:25;;;;;;;13.98;12.77;;;19.40;80.50;;;;;;5208445;28;20033;-67
2021/08/13 04:09:57;;;;;;;13.73;12.43;;;19.40;79.50;;;;;;5195607;28;20041;-68
2021/08/13 04:12:29;;;;;;;13.73;12.50;;;19.40;80.70;;;;;;5193315;28;20033;-67
2021/08/13 04:15:18;;;;;;;13.52;12.32;;;19.40;81.00;;;;;;5194989;28;20049;-69
2021/08/13 04:17:53;;;;;;;13.65;12.45;;;19.40;80.80;;;;;;5193193;28;20549;-67
2021/08/13 04:20:28;;;;;;;13.73;12.35;;;19.40;80.40;;;;;;5197563;28;20130;-68
2021/08/13 04:23:05;;;;;;;14.82;13.38;;;19.40;80.40;;;;;;5170032;28;20045;-67
2021/08/13 04:25:36;;;;;;;13.85;12.55;;;19.40;80.50;;;;;;5192589;28;20525;-67
2021/08/13 04:28:09;;;;;;;14.02;12.63;;;19.40;80.40;;;;;;5190170;28;20053;-67
2021/08/13 04:30:41;;;;;;;15.43;13.20;;;19.30;80.80;;;;;;5189205;28;20061;-67
2021/08/13 04:33:15;;;;;;;12.48;11.27;;;19.40;80.80;;;;;;5173271;28;20049;-67
2021/08/13 04:35:53;;;;;;;13.77;12.52;;;19.40;81.70;;;;;;5188668;28;20131;-67
2021/08/13 04:38:26;;;;;;;13.77;12.48;;;19.40;81.10;;;;;;5206783;28;20049;-67
2021/08/13 04:40:58;;;;;;;13.70;12.43;;;19.40;80.80;;;;;;5193128;28;20518;-68
2021/08/13 04:43:31;;;;;;;13.27;12.10;;;19.30;80.40;;;;;;5185130;28;20099;-69
2021/08/13 04:46:03;;;;;;;15.45;12.02;;;19.40;79.70;;;;;;5174477;28;20160;-68
2021/08/13 04:48:36;;;;;;;13.05;11.80;;;19.40;80.50;;;;;;5191363;28;20047;-67
2021/08/13 04:51:08;;;;;;;13.85;12.63;;;19.30;81.20;;;;;;5207885;28;20048;-68
2021/08/13 04:53:42;;;;;;;15.63;12.32;;;19.30;80.50;;;;;;5190029;28;20094;-68
2021/08/13 04:56:14;;;;;;;12.85;11.52;;;19.40;81.20;;;;;;5189889;28;20049;-68
2021/08/13 04:58:46;;;;;;;13.50;12.20;;;19.40;82.10;;;;;;5193126;28;20130;-69
2021/08/13 05:01:31;;;;;;;13.65;12.45;;;19.40;81.60;;;;;;5173835;28;21031;-68
2021/08/13 05:04:04;;;;;;;13.30;11.90;;;19.40;82.60;;;;;;5189766;28;20054;-69
2021/08/13 05:06:36;;;;;;;13.60;12.30;;;19.40;82.60;;;;;;5190248;28;20095;-68
2021/08/13 05:09:08;;;;;;;13.75;12.55;;;19.40;82.50;;;;;;5203588;28;20038;-68
2021/08/13 05:11:40;;;;;;;12.27;11.18;;;19.40;81.60;;;;;;5190134;28;20033;-68
2021/08/13 05:14:12;;;;;;;13.10;11.75;;;19.40;81.50;;;;;;5189042;28;20041;-67
2021/08/13 05:16:44;;;;;;;13.13;11.48;;;19.40;81.30;;;;;;5205661;28;20048;-68
2021/08/13 05:19:16;;;;;;;13.30;12.00;;;19.50;81.60;;;;;;5188614;28;20076;-68
2021/08/13 05:21:48;;;;;;;17.98;12.07;;;19.50;81.10;;;;;;5203161;28;20041;-71
2021/08/13 05:24:28;;;;;;;13.23;11.93;;;19.50;81.40;;;;;;5183052;28;20052;-67
2021/08/13 05:27:01;;;;;;;13.75;12.43;;;19.60;81.40;;;;;;5189862;28;20056;-69
2021/08/13 05:29:34;;;;;;;13.43;12.18;;;19.60;81.70;;;;;;5206300;28;20049;-67
2021/08/13 05:32:08;;;;;;;13.30;11.95;;;19.70;81.30;;;;;;5193419;28;20041;-67
2021/08/13 05:34:42;;;;;;;13.07;11.05;;;19.90;81.20;;;;;;5190068;28;20104;-67
2021/08/13 05:37:13;;;;;;;13.70;12.07;;;20.00;82.00;;;;;;5187592;28;20434;-67
2021/08/13 05:39:47;;;;;;;13.23;11.98;;;20.10;81.70;;;;;;5190304;28;21797;-67
2021/08/13 05:42:19;;;;;;;14.98;12.20;;;20.10;80.70;;;;;;5203196;28;20534;-67
2021/08/13 05:44:52;;;;;;;14.45;13.05;;;20.20;80.00;;;;;;5190197;28;20069;-67
2021/08/13 05:47:24;;;;;;;14.18;12.70;;;20.30;79.70;;;;;;5203879;28;20068;-67
2021/08/13 05:49:56;;;;;;;14.73;13.32;;;20.50;79.40;;;;;;5175549;28;20052;-67
2021/08/13 05:52:28;;;;;;;15.18;13.68;;;20.60;80.50;;;;;;5183823;28;20041;-66
2021/08/13 05:55:04;;;;;;;13.88;12.65;;;20.80;79.60;;;;;;5195802;28;20053;-66
2021/08/13 05:57:42;;;;;;;15.25;13.77;;;20.90;78.00;;;;;;5175098;28;20049;-67
2021/08/13 06:00:15;;;;;;;14.55;13.20;;;21.10;78.30;;;;;;5182740;28;20104;-67
2021/08/13 06:02:56;;;;;;;14.18;12.88;;;21.30;78.50;;;;;;5189767;28;20041;-67
2021/08/13 06:05:30;;;;;;;14.98;13.50;;;21.50;77.90;;;;;;5184119;28;20154;-66
2021/08/13 06:08:04;;;;;;;14.45;13.15;;;21.60;74.50;;;;;;5185246;28;20056;-66
2021/08/13 06:10:36;;;;;;;15.07;13.57;;;21.70;74.90;;;;;;5204276;28;20526;-67
2021/08/13 06:13:08;;;;;;;16.13;14.48;;;21.80;75.20;;;;;;5200852;28;20384;-68
2021/08/13 06:15:43;;;;;;;14.68;13.45;;;22.00;76.20;;;;;;5198133;28;20041;-67
2021/08/13 06:18:15;;;;;;;15.30;13.73;;;22.10;74.40;;;;;;5209274;28;20668;-69
2021/08/13 06:20:47;;;;;;;15.15;13.60;;;22.10;74.10;;;;;;5203773;28;20045;-68
2021/08/13 06:23:24;;;;;;;14.68;13.48;;;22.10;73.50;;;;;;5173396;28;20037;-68
2021/08/13 06:25:56;;;;;;;14.05;12.85;;;22.20;72.20;;;;;;5189992;28;20045;-67
2021/08/13 06:28:29;;;;;;;15.07;13.68;;;22.20;71.80;;;;;;5187724;28;20048;-66
2021/08/13 06:31:01;;;;;;;15.18;13.88;;;22.30;71.30;;;;;;5191038;28;20045;-69
2021/08/13 06:33:34;;;;;;;14.43;13.10;;;22.40;72.10;;;;;;5189204;28;20049;-67
2021/08/13 06:36:07;;;;;;;14.55;13.25;;;22.50;71.90;;;;;;5189924;28;20050;-67
2021/08/13 06:38:41;;;;;;;14.48;13.18;;;22.50;72.50;;;;;;5191347;28;20399;-68
2021/08/13 06:41:13;;;;;;;14.68;13.27;;;22.70;72.10;;;;;;5185300;28;20094;-67
2021/08/13 06:44:05;;;;;;;15.57;14.15;;;22.80;72.50;;;;;;5203773;28;20068;-67
2021/08/13 06:46:36;;;;;;;15.05;13.65;;;23.00;73.70;;;;;;5197647;28;20089;-67
2021/08/13 06:49:08;;;;;;;14.63;13.15;;;23.20;72.50;;;;;;5192190;28;20075;-68
2021/08/13 06:51:40;;;;;;;15.25;13.90;;;23.30;70.20;;;;;;5173647;28;20033;-67
2021/08/13 06:54:12;;;;;;;16.45;14.85;;;23.40;70.50;;;;;;5194340;28;20907;-67
2021/08/13 06:56:44;;;;;;;16.08;14.60;;;23.60;70.50;;;;;;5208686;28;20060;-67
2021/08/13 06:59:16;;;;;;;15.52;14.20;;;23.70;70.30;;;;;;5208633;28;20252;-69
2021/08/13 07:01:48;;;;;;;15.20;13.85;;;23.80;70.00;;;;;;5190510;28;20041;-68
2021/08/13 07:04:20;;;;;;;17.42;14.90;;;23.90;68.70;;;;;;5194925;28;20553;-68
2021/08/13 07:06:52;;;;;;;16.08;14.50;;;24.00;68.10;;;;;;5194541;28;20383;-68
2021/08/13 07:09:26;;;;;;;16.25;14.95;;;24.00;67.50;;;;;;5192325;28;20045;-67
2021/08/13 07:11:57;;;;;;;16.30;14.90;;;24.10;67.90;;;;;;5190409;28;20037;-67
2021/08/13 07:14:29;;;;;;;15.52;14.13;;;24.30;70.00;;;;;;5208074;28;20077;-68
2021/08/13 07:17:01;;;;;;;15.98;14.57;;;24.30;68.40;;;;;;5201887;28;20041;-68
2021/08/13 07:19:37;;;;;;;16.35;14.85;;;24.40;67.60;;;;;;5203330;28;20045;-67
2021/08/13 07:22:09;;;;;;;16.08;14.63;;;24.50;66.30;;;;;;5192265;28;20047;-66
2021/08/13 07:24:41;;;;;;;16.13;14.77;;;24.70;67.80;;;;;;5198549;28;20053;-67
2021/08/13 07:27:13;;;;;;;16.80;15.30;;;24.70;67.10;;;;;;5203528;28;20215;-67
2021/08/13 07:29:48;;;;;;;15.88;14.40;;;24.90;66.10;;;;;;5198271;28;20048;-67
2021/08/13 07:32:20;;;;;;;16.13;14.48;;;25.00;68.00;;;;;;5193048;28;20049;-68
2021/08/13 07:34:52;;;;;;;16.45;15.05;;;25.10;66.10;;;;;;5193017;28;20049;-67
2021/08/13 07:37:30;;;;;;;16.27;14.98;;;25.30;66.60;;;;;;5190503;28;20041;-66
2021/08/13 07:40:03;;;;;;;17.08;15.65;;;25.50;66.60;;;;;;5190171;28;20111;-68
2021/08/13 07:42:36;;;;;;;17.17;15.57;;;25.70;67.60;;;;;;5206349;28;20041;-67
2021/08/13 07:45:09;;;;;;;17.15;15.73;;;25.80;66.00;;;;;;5199667;28;20099;-67
2021/08/13 07:47:41;;;;;;;16.83;15.10;;;25.90;64.30;;;;;;5188161;28;20044;-68
2021/08/13 07:50:16;;;;;;;16.55;15.05;;;25.90;64.00;;;;;;5198709;28;20099;-68
2021/08/13 07:52:53;;;;;;;16.77;15.30;;;25.80;64.10;;;;;;5193457;28;20045;-67
2021/08/13 07:55:27;;;;;;;16.20;14.90;;;25.90;65.40;;;;;;5188638;28;20065;-67
2021/08/13 07:57:59;;;;;;;16.65;15.35;;;25.90;66.20;;;;;;5200969;28;20438;-66
2021/08/13 08:00:31;;;;;;;16.73;15.38;;;25.80;65.60;;;;;;5204803;28;20042;-67
2021/08/13 08:03:03;;;;;;;16.70;15.23;;;25.80;62.10;;;;;;5199188;28;20041;-70
2021/08/13 08:05:35;;;;;;;16.52;15.20;;;25.90;61.90;;;;;;5208301;28;20053;-67
2021/08/13 08:08:07;;;;;;;17.33;15.82;;;25.70;62.20;;;;;;5178354;28;20076;-67
2021/08/13 08:10:45;;;;;;;16.83;15.27;;;25.80;61.70;;;;;;5212562;28;20037;-67
2021/08/13 08:13:17;;;;;;;17.30;15.70;;;26.00;60.70;;;;;;5209092;28;20071;-67
2021/08/13 08:15:49;;;;;;;16.73;15.15;;;26.20;60.90;;;;;;5204966;28;20052;-67
2021/08/13 08:18:23;;;;;;;16.10;14.70;;;26.10;60.50;;;;;;5204822;28;20056;-67
2021/08/13 08:20:55;;;;;;;16.10;14.80;;;26.00;64.10;;;;;;5205727;28;20049;-67
2021/08/13 08:23:26;;;;;;;17.25;15.55;;;26.00;60.80;;;;;;5204867;28;20221;-67
2021/08/13 08:25:58;;;;;;;17.00;15.50;;;26.20;60.50;;;;;;5204185;28;20423;-67
2021/08/13 08:28:30;;;;;;;16.55;15.05;;;26.30;62.50;;;;;;5204452;28;20049;-68
2021/08/13 08:31:02;;;;;;;17.70;16.05;;;26.40;63.10;;;;;;5205530;28;20045;-68
2021/08/13 08:33:34;;;;;;;18.38;16.77;;;26.60;63.70;;;;;;5206864;28;20059;-67
2021/08/13 08:36:06;;;;;;;17.23;15.75;;;26.70;62.90;;;;;;5206447;28;20052;-67
2021/08/13 08:38:41;;;;;;;17.10;15.70;;;26.80;64.30;;;;;;5177444;28;20049;-68
2021/08/13 08:41:13;;;;;;;16.95;15.45;;;26.90;62.60;;;;;;5206499;28;20511;-67
2021/08/13 08:43:48;;;;;;;16.85;15.55;;;27.00;60.70;;;;;;5208720;28;20053;-68
2021/08/13 08:46:21;;;;;;;17.67;16.15;;;27.10;61.20;;;;;;5208773;28;20057;-68
2021/08/13 08:48:55;;;;;;;17.08;15.57;;;27.20;61.00;;;;;;5206651;28;20129;-67
2021/08/13 08:51:28;;;;;;;17.67;16.02;;;27.20;60.10;;;;;;5198140;28;20041;-67
2021/08/13 08:54:00;;;;;;;17.38;15.90;;;27.30;60.30;;;;;;5211888;28;20063;-68
2021/08/13 08:56:33;;;;;;;17.48;16.05;;;27.30;58.50;;;;;;5209729;28;20065;-68
2021/08/13 08:59:05;;;;;;;17.90;16.40;;;27.40;58.70;;;;;;5208455;28;20057;-68
2021/08/13 09:01:37;;;;;;;18.33;16.60;;;27.50;58.50;;;;;;5190244;28;20041;-68
2021/08/13 09:04:09;;;;;;;17.20;15.68;;;27.60;59.10;;;;;;5198717;28;20666;-67
2021/08/13 09:06:42;;;;;;;16.45;15.25;;;27.60;56.80;;;;;;5206480;28;20056;-69
2021/08/13 09:09:14;;;;;;;17.10;15.73;;;27.70;54.50;;;;;;5205855;28;20056;-67
2021/08/13 09:11:47;;;;;;;16.92;15.50;;;27.70;54.80;;;;;;5207529;28;20044;-69
2021/08/13 09:14:19;;;;;;;17.40;15.90;;;27.70;57.70;;;;;;5204891;28;20053;-67
2021/08/13 09:17:02;;;;;;;17.60;16.10;;;27.80;58.60;;;;;;5208335;28;20073;-67
2021/08/13 09:19:46;;;;;;;16.73;15.02;;;27.90;58.40;;;;;;5209676;28;20057;-67
2021/08/13 09:22:20;;;;;;;17.48;15.65;;;28.00;59.10;;;;;;5190230;28;20056;-71
2021/08/13 09:24:54;;;;;;;17.25;15.68;;;28.20;59.10;;;;;;5203347;28;20419;-67
2021/08/13 09:27:46;;;;;;;17.25;15.75;;;28.30;58.90;;;;;;5208033;28;20534;-68
2021/08/13 09:30:43;;;;;;;17.50;15.80;;;28.50;56.80;;;;;;5189050;28;20052;-67
2021/08/13 09:33:15;;;;;;;16.88;15.43;;;28.70;56.30;;;;;;5209128;28;20052;-68
2021/08/13 09:35:59;;;;;;;16.08;14.70;;;28.70;56.90;;;;;;5205410;28;20041;-71
2021/08/13 09:38:32;;;;;;;16.98;15.32;;;28.50;56.40;;;;;;5205558;28;20068;-69
2021/08/13 09:41:07;;;;;;;16.23;14.80;;;28.40;54.00;;;;;;5206161;28;20051;-68
2021/08/13 09:44:00;;;;;;;16.45;14.82;;;28.20;57.10;;;;;;5191585;28;20049;-67
2021/08/13 09:46:33;;;;;;;17.20;15.40;;;28.10;58.60;;;;;;5188921;28;20052;-68
2021/08/13 09:49:16;;;;;;;15.98;14.50;;;28.10;57.90;;;;;;5206935;28;20103;-67
2021/08/13 09:51:48;;;;;;;16.90;15.38;;;28.00;58.00;;;;;;5187643;28;20126;-68
2021/08/13 09:54:27;;;;;;;16.20;14.80;;;28.00;58.50;;;;;;5192775;28;20049;-66
2021/08/13 09:57:09;;;;;;;17.10;15.60;;;28.00;58.20;;;;;;5208684;28;20080;-67
2021/08/13 09:59:59;;;;;;;16.15;14.95;;;28.00;57.60;;;;;;5182673;28;20057;-68
2021/08/13 10:02:47;;;;;;;16.60;15.05;;;28.20;56.70;;;;;;5205197;28;20052;-72
2021/08/13 10:05:20;;;;;;;16.83;15.32;;;28.40;58.60;;;;;;5207216;28;20064;-68
2021/08/13 10:08:00;;;;;;;16.40;15.00;;;28.50;57.90;;;;;;5186956;28;20045;-67
2021/08/13 10:10:33;;;;;;;16.67;15.23;;;28.50;57.60;;;;;;5205512;28;20048;-69
2021/08/13 10:13:09;;;;;;;16.73;15.32;;;28.60;59.60;;;;;;5198038;28;20047;-67
2021/08/13 10:15:55;;;;;;;16.75;15.43;;;28.70;59.50;;;;;;5181787;28;20041;-67
2021/08/13 10:18:35;;;;;;;15.90;14.60;;;28.70;56.20;;;;;;5190870;28;20061;-68
2021/08/13 10:21:07;;;;;;;16.55;15.05;;;28.70;55.60;;;;;;5206358;28;20747;-68
2021/08/13 10:23:39;;;;;;;16.52;15.07;;;28.80;57.70;;;;;;5186264;28;20107;-66
2021/08/13 10:26:11;;;;;;;15.93;14.63;;;28.90;55.70;;;;;;5196346;28;20046;-66
2021/08/13 10:28:45;;;;;;;16.25;14.75;;;29.00;55.80;;;;;;5206945;28;20115;-67
2021/08/13 10:31:21;;;;;;;17.08;15.48;;;29.00;55.40;;;;;;5197772;28;20040;-67
2021/08/13 10:34:01;;;;;;;17.05;15.48;;;29.10;55.10;;;;;;5173821;28;20060;-68
2021/08/13 10:36:34;;;;;;;16.38;15.05;;;29.10;56.10;;;;;;5199093;28;20037;-68
2021/08/13 10:39:08;;;;;;;16.20;14.80;;;29.20;55.30;;;;;;5200493;28;20103;-66
2021/08/13 10:41:42;;;;;;;16.63;15.32;;;29.30;51.70;;;;;;5206005;28;20088;-67
2021/08/13 10:44:19;;;;;;;17.30;15.60;;;29.20;52.30;;;;;;5198689;28;20060;-67
2021/08/13 10:46:53;;;;;;;16.77;15.43;;;29.30;52.00;;;;;;5198212;28;20048;-68
2021/08/13 10:49:27;;;;;;;17.50;16.10;;;29.30;51.90;;;;;;5197843;28;20040;-66
2021/08/13 10:52:04;;;;;;;16.80;15.50;;;29.40;51.60;;;;;;5193923;28;20123;-67
2021/08/13 10:54:42;;;;;;;16.73;15.40;;;29.50;51.20;;;;;;5183430;28;20439;-67
2021/08/13 10:57:37;;;;;;;;;;;29.50;51.30;;;;;;5191354;28;20033;-67
2021/08/13 11:00:10;;;;;;;16.90;15.55;;;29.60;53.30;;;;;;5184441;28;19932;-68
2021/08/13 11:03:20;;;;;;;16.65;15.35;;;29.80;49.50;;;;;;5151815;28;20816;-66
2021/08/13 11:05:59;;;;;;;16.63;15.20;;;29.80;49.50;;;;;;5189909;28;20056;-66
2021/08/13 11:08:39;;;;;;;;;;;29.90;48.90;;;;;;5179717;28;20426;-68
2021/08/13 11:11:14;;;;;;;17.02;15.68;;;30.00;50.50;;;;;;5193266;28;19929;-67
2021/08/13 11:13:47;;;;;;;16.52;15.15;;;30.10;50.50;;;;;;5187495;28;20091;-67
2021/08/13 11:16:33;;;;;;;16.77;15.38;;;30.20;49.50;;;;;;5190919;28;20052;-67
2021/08/13 11:19:11;;;;;;;17.25;15.10;;;30.40;49.40;;;;;;5193840;28;20074;-66
2021/08/13 11:21:49;;;;;;;16.33;15.05;;;30.50;44.30;;;;;;5207656;28;20106;-66
2021/08/13 11:24:48;;;;;;;16.58;15.15;;;30.40;45.60;;;;;;5182430;28;20041;-68
2021/08/13 11:27:21;;;;;;;17.42;15.80;;;30.60;47.20;;;;;;5193274;28;20132;-67
2021/08/13 11:29:53;;;;;;;16.65;15.32;;;30.70;44.40;;;;;;5194030;28;20041;-67
2021/08/13 11:32:34;;;;;;;16.70;15.40;;;30.70;41.60;;;;;;5192113;28;20060;-66
2021/08/13 11:35:07;;;;;;;16.00;14.52;;;30.60;43.60;;;;;;5199516;28;20045;-67
2021/08/13 11:37:48;;;;;;;16.67;15.23;;;30.60;42.00;;;;;;5197644;28;20060;-69
2021/08/13 11:40:24;;;;;;;16.23;14.82;;;30.80;44.40;;;;;;5190906;28;20044;-66
2021/08/13 11:43:00;;;;;;;16.95;15.32;;;30.80;42.30;;;;;;5207868;28;20038;-66
2021/08/13 11:45:39;;;;;;;17.27;15.68;;;31.00;42.50;;;;;;5190649;28;20128;-66
2021/08/13 11:48:15;;;;;;;16.83;15.38;;;31.20;43.10;;;;;;5189931;28;20045;-66
2021/08/13 11:50:48;;;;;;;16.85;15.40;;;31.30;38.70;;;;;;5190794;28;20037;-68
2021/08/13 11:53:33;;;;;;;17.23;15.73;;;31.40;43.10;;;;;;5203757;28;20467;-67
2021/08/13 11:56:05;;;;;;;16.40;14.90;;;31.50;40.70;;;;;;5190970;28;20179;-66
2021/08/13 11:58:38;;;;;;;16.73;15.35;;;31.50;42.90;;;;;;5191465;28;20072;-67
2021/08/13 12:01:10;;;;;;;17.60;16.00;;;31.60;42.00;;;;;;5188823;28;20059;-67
2021/08/13 12:03:42;;;;;;;17.65;16.08;;;31.60;43.70;;;;;;5191125;28;20057;-66
2021/08/13 12:06:15;;;;;;;17.35;15.90;;;31.60;43.80;;;;;;5191928;28;20510;-67
2021/08/13 12:08:58;;;;;;;17.42;16.00;;;31.70;44.00;;;;;;5174391;28;20131;-68
2021/08/13 12:11:31;;;;;;;16.80;15.38;;;31.80;39.90;;;;;;5169704;28;20045;-68
2021/08/13 12:14:11;;;;;;;16.58;15.18;;;31.80;40.80;;;;;;5188249;28;20045;-67
2021/08/13 12:16:43;;;;;;;16.55;15.15;;;31.80;40.20;;;;;;5209068;28;20041;-68
2021/08/13 12:19:15;;;;;;;16.63;15.15;;;31.70;42.70;;;;;;5174728;28;20131;-66
2021/08/13 12:22:04;;;;;;;17.25;15.85;;;31.90;44.70;;;;;;5189220;28;20771;-67
2021/08/13 12:24:40;;;;;;;16.75;15.30;;;31.90;40.10;;;;;;5188457;28;20060;-66
2021/08/13 12:27:13;;;;;;;17.20;15.90;;;31.90;43.20;;;;;;5180957;28;20599;-67
2021/08/13 12:29:46;;;;;;;17.27;15.77;;;31.90;39.90;;;;;;5201729;28;20809;-67
2021/08/13 12:32:33;;;;;;;17.35;15.93;;;32.00;42.10;;;;;;5193119;28;20044;-68
2021/08/13 12:35:06;;;;;;;17.35;15.95;;;32.10;40.50;;;;;;5192660;28;20040;-67
2021/08/13 12:37:40;;;;;;;17.15;15.77;;;32.10;42.60;;;;;;5209591;28;20049;-67
2021/08/13 12:40:15;;;;;;;16.70;15.35;;;32.10;42.30;;;;;;5185911;28;20517;-67
2021/08/13 12:42:52;;;;;;;17.45;16.05;;;32.10;41.20;;;;;;5184627;28;20046;-69
2021/08/13 12:45:26;;;;;;;16.98;15.48;;;32.10;39.00;;;;;;5200196;28;20049;-67
2021/08/13 12:47:58;;;;;;;17.60;15.88;;;32.10;37.30;;;;;;5192949;28;20108;-66
2021/08/13 12:50:30;;;;;;;16.55;15.02;;;32.20;39.60;;;;;;5197629;28;20085;-68
2021/08/13 12:53:07;;;;;;;17.30;15.75;;;32.10;39.60;;;;;;5194276;28;20137;-68
2021/08/13 12:55:45;;;;;;;17.52;16.13;;;32.20;39.90;;;;;;5185257;28;20064;-68
2021/08/13 12:58:36;;;;;;;17.38;15.70;;;32.30;39.20;;;;;;5183435;28;20129;-69
2021/08/13 13:01:23;;;;;;;17.02;15.73;;;32.30;39.40;;;;;;5186367;28;20438;-67
2021/08/13 13:04:16;;;;;;;17.10;15.60;;;32.30;39.20;;;;;;5192869;28;20400;-66
2021/08/13 13:06:56;;;;;;;17.33;15.98;;;32.30;40.00;;;;;;5189532;28;20046;-65
2021/08/13 13:09:30;;;;;;;17.77;16.15;;;32.20;40.50;;;;;;5190478;28;20119;-66
2021/08/13 13:12:29;;;;;;;17.58;15.90;;;32.30;40.50;;;;;;5183691;28;20520;-66